Orford, Canada
Current Conditions -  °F | °C
As of 10:58 PM on Saturday 22 Nov 2014 (Local Time) from CYSC Reporting Station
Haze Haze  
Wind Chill: 32°   Ceiling: 1300
Heat Index: 32°   Visibility: 5mi
Dew Point: 32°   Wind: 2mph
Humidity: 100%   Direction: NA
Pressure: 29.88"   Gusts: NA
Location:  45.31°N, 72.17°W
Report Text: CYSC 230358Z AUTO VRB02KT 5SM BR OVC013 00/M00 A2988 RMK SLP129
Loading
Personal Weather Stations






























Interactive Weather Map New forecast layout! Learn more

10-Day Weather Forecast

Advertisements
Track Severe Weather on mobile